sensor_id;sensor_type;location;lat;lon;timestamp;pressure;altitude;pressure_sealevel;temperature;humidity
61128;BME280;47013;42.664;23.242;2023-04-26T00:01:38;93102.69;;;8.98;96.16
61128;BME280;47013;42.664;23.242;2023-04-26T00:04:04;93100.34;;;9.00;97.14
61128;BME280;47013;42.664;23.242;2023-04-26T00:06:29;93100.69;;;9.02;97.20
61128;BME280;47013;42.664;23.242;2023-04-26T00:08:54;93090.72;;;8.99;97.05
61128;BME280;47013;42.664;23.242;2023-04-26T00:11:20;93092.34;;;8.93;96.88
61128;BME280;47013;42.664;23.242;2023-04-26T00:13:45;93085.00;;;8.94;96.40
61128;BME280;47013;42.664;23.242;2023-04-26T00:16:12;93084.59;;;8.95;95.43
61128;BME280;47013;42.664;23.242;2023-04-26T00:18:37;93078.16;;;8.89;94.72
61128;BME280;47013;42.664;23.242;2023-04-26T00:21:02;93070.31;;;8.75;96.05
61128;BME280;47013;42.664;23.242;2023-04-26T00:23:27;93074.38;;;8.83;97.24
61128;BME280;47013;42.664;23.242;2023-04-26T00:25:53;93075.56;;;8.82;94.36
61128;BME280;47013;42.664;23.242;2023-04-26T00:28:18;93072.44;;;8.83;94.21
61128;BME280;47013;42.664;23.242;2023-04-26T00:30:43;93071.06;;;8.75;93.44
61128;BME280;47013;42.664;23.242;2023-04-26T00:33:12;93072.38;;;8.67;94.40
61128;BME280;47013;42.664;23.242;2023-04-26T00:35:38;93068.50;;;8.45;94.63
61128;BME280;47013;42.664;23.242;2023-04-26T00:38:03;93069.28;;;8.45;96.12
61128;BME280;47013;42.664;23.242;2023-04-26T00:40:29;93062.72;;;8.46;97.66
61128;BME280;47013;42.664;23.242;2023-04-26T00:42:57;93062.41;;;8.41;97.19
61128;BME280;47013;42.664;23.242;2023-04-26T00:45:23;93066.44;;;8.29;97.96
61128;BME280;47013;42.664;23.242;2023-04-26T00:47:48;93060.09;;;8.16;98.22
61128;BME280;47013;42.664;23.242;2023-04-26T00:50:13;93070.44;;;7.97;98.99
61128;BME280;47013;42.664;23.242;2023-04-26T00:52:39;93066.06;;;8.04;99.61
61128;BME280;47013;42.664;23.242;2023-04-26T00:55:04;93073.25;;;8.14;98.99
61128;BME280;47013;42.664;23.242;2023-04-26T00:57:30;93065.25;;;8.07;98.84
61128;BME280;47013;42.664;23.242;2023-04-26T00:59:55;93066.25;;;7.93;98.81
61128;BME280;47013;42.664;23.242;2023-04-26T01:02:21;93066.03;;;7.80;99.27
61128;BME280;47013;42.664;23.242;2023-04-26T01:04:46;93069.28;;;7.72;99.30
61128;BME280;47013;42.664;23.242;2023-04-26T01:07:12;93077.88;;;7.63;99.49
61128;BME280;47013;42.664;23.242;2023-04-26T01:09:37;93071.97;;;7.45;99.79
61128;BME280;47013;42.664;23.242;2023-04-26T01:12:03;93075.06;;;7.43;100.00
61128;BME280;47013;42.664;23.242;2023-04-26T01:14:29;93069.47;;;7.57;100.00
61128;BME280;47013;42.664;23.242;2023-04-26T01:16:56;93069.22;;;7.75;100.00
61128;BME280;47013;42.664;23.242;2023-04-26T01:19:21;93062.28;;;7.74;99.82
61128;BME280;47013;42.664;23.242;2023-04-26T01:21:47;93055.22;;;7.84;98.99
61128;BME280;47013;42.664;23.242;2023-04-26T01:24:12;93043.47;;;7.94;97.85
61128;BME280;47013;42.664;23.242;2023-04-26T01:26:41;93054.16;;;8.01;97.13
61128;BME280;47013;42.664;23.242;2023-04-26T01:29:13;93057.91;;;8.07;97.24
61128;BME280;47013;42.664;23.242;2023-04-26T01:31:39;93061.69;;;8.13;97.06
61128;BME280;47013;42.664;23.242;2023-04-26T01:34:05;93068.91;;;8.20;97.54
61128;BME280;47013;42.664;23.242;2023-04-26T01:36:30;93071.50;;;8.27;98.08
61128;BME280;47013;42.664;23.242;2023-04-26T01:38:56;93075.22;;;8.33;97.52
61128;BME280;47013;42.664;23.242;2023-04-26T01:41:21;93086.03;;;8.33;97.19
61128;BME280;47013;42.664;23.242;2023-04-26T01:43:47;93079.28;;;7.98;99.66
61128;BME280;47013;42.664;23.242;2023-04-26T01:46:12;93077.16;;;7.86;100.00
61128;BME280;47013;42.664;23.242;2023-04-26T01:48:37;93073.16;;;7.94;100.00
61128;BME280;47013;42.664;23.242;2023-04-26T01:51:02;93072.47;;;7.90;100.00
61128;BME280;47013;42.664;23.242;2023-04-26T01:53:30;93067.22;;;7.79;100.00
61128;BME280;47013;42.664;23.242;2023-04-26T01:55:55;93062.38;;;7.67;100.00
61128;BME280;47013;42.664;23.242;2023-04-26T01:58:21;93060.72;;;7.50;100.00
61128;BME280;47013;42.664;23.242;2023-04-26T02:00:46;93053.09;;;7.45;100.00
61128;BME280;47013;42.664;23.242;2023-04-26T02:03:11;93047.28;;;7.46;100.00
61128;BME280;47013;42.664;23.242;2023-04-26T02:05:36;93044.84;;;7.55;100.00
61128;BME280;47013;42.664;23.242;2023-04-26T02:08:02;93050.06;;;7.66;100.00
61128;BME280;47013;42.664;23.242;2023-04-26T02:10:27;93049.50;;;7.78;100.00
61128;BME280;47013;42.664;23.242;2023-04-26T02:12:55;93057.50;;;7.85;100.00
61128;BME280;47013;42.664;23.242;2023-04-26T02:15:20;93043.19;;;7.88;100.00
61128;BME280;47013;42.664;23.242;2023-04-26T02:17:45;93041.91;;;7.96;100.00
61128;BME280;47013;42.664;23.242;2023-04-26T02:20:11;93038.97;;;8.11;100.00
61128;BME280;47013;42.664;23.242;2023-04-26T02:22:36;93037.50;;;8.06;99.38
61128;BME280;47013;42.664;23.242;2023-04-26T02:25:01;93035.44;;;8.14;98.95
61128;BME280;47013;42.664;23.242;2023-04-26T02:27:27;93038.03;;;8.21;98.64
61128;BME280;47013;42.664;23.242;2023-04-26T02:29:52;93040.59;;;8.28;97.28
61128;BME280;47013;42.664;23.242;2023-04-26T02:32:17;93042.81;;;8.33;96.27
61128;BME280;47013;42.664;23.242;2023-04-26T02:34:43;93047.25;;;8.23;95.26
61128;BME280;47013;42.664;23.242;2023-04-26T02:37:08;93052.09;;;8.32;95.27
61128;BME280;47013;42.664;23.242;2023-04-26T02:39:34;93048.97;;;8.37;93.95
61128;BME280;47013;42.664;23.242;2023-04-26T02:41:59;93043.16;;;8.39;94.41
61128;BME280;47013;42.664;23.242;2023-04-26T02:44:27;93042.31;;;8.42;94.65
61128;BME280;47013;42.664;23.242;2023-04-26T02:46:52;93035.22;;;8.28;96.07
61128;BME280;47013;42.664;23.242;2023-04-26T02:49:18;93033.22;;;8.09;97.30
61128;BME280;47013;42.664;23.242;2023-04-26T02:51:43;93020.72;;;7.95;99.18
61128;BME280;47013;42.664;23.242;2023-04-26T02:54:08;93029.22;;;7.93;99.03
61128;BME280;47013;42.664;23.242;2023-04-26T02:56:33;93020.00;;;7.91;99.38
61128;BME280;47013;42.664;23.242;2023-04-26T02:58:58;93015.78;;;7.90;99.54
61128;BME280;47013;42.664;23.242;2023-04-26T03:01:24;93026.00;;;8.02;99.48
61128;BME280;47013;42.664;23.242;2023-04-26T03:03:49;93016.06;;;8.19;99.56
61128;BME280;47013;42.664;23.242;2023-04-26T03:06:15;93024.34;;;8.32;98.53
61128;BME280;47013;42.664;23.242;2023-04-26T03:08:40;93020.66;;;8.45;97.75
61128;BME280;47013;42.664;23.242;2023-04-26T03:11:06;93026.25;;;8.35;100.00
61128;BME280;47013;42.664;23.242;2023-04-26T03:13:31;93026.63;;;8.33;100.00
61128;BME280;47013;42.664;23.242;2023-04-26T03:15:56;93027.41;;;8.34;100.00
61128;BME280;47013;42.664;23.242;2023-04-26T03:18:21;93034.38;;;8.35;100.00
61128;BME280;47013;42.664;23.242;2023-04-26T03:20:47;93032.34;;;8.39;100.00
61128;BME280;47013;42.664;23.242;2023-04-26T03:23:12;93026.28;;;8.54;100.00
61128;BME280;47013;42.664;23.242;2023-04-26T03:25:37;93029.19;;;8.64;100.00
61128;BME280;47013;42.664;23.242;2023-04-26T03:28:03;93029.91;;;8.68;100.00
61128;BME280;47013;42.664;23.242;2023-04-26T03:30:28;93033.78;;;8.67;100.00
61128;BME280;47013;42.664;23.242;2023-04-26T03:32:53;93034.75;;;8.76;100.00
61128;BME280;47013;42.664;23.242;2023-04-26T03:35:19;93035.94;;;8.75;100.00
61128;BME280;47013;42.664;23.242;2023-04-26T03:37:44;93037.81;;;8.78;100.00
61128;BME280;47013;42.664;23.242;2023-04-26T03:40:09;93043.44;;;8.88;100.00
61128;BME280;47013;42.664;23.242;2023-04-26T03:42:35;93045.22;;;8.94;100.00
61128;BME280;47013;42.664;23.242;2023-04-26T03:45:01;93048.59;;;8.98;100.00
61128;BME280;47013;42.664;23.242;2023-04-26T03:47:28;93048.91;;;9.04;100.00
61128;BME280;47013;42.664;23.242;2023-04-26T03:49:53;93039.59;;;9.05;100.00
61128;BME280;47013;42.664;23.242;2023-04-26T03:52:18;93045.34;;;9.07;100.00
61128;BME280;47013;42.664;23.242;2023-04-26T03:54:43;93045.00;;;9.05;100.00
61128;BME280;47013;42.664;23.242;2023-04-26T03:57:09;93049.66;;;9.04;100.00
61128;BME280;47013;42.664;23.242;2023-04-26T03:59:34;93054.31;;;9.04;100.00
61128;BME280;47013;42.664;23.242;2023-04-26T04:01:59;93060.06;;;9.06;100.00
61128;BME280;47013;42.664;23.242;2023-04-26T04:04:24;93065.38;;;9.09;100.00
61128;BME280;47013;42.664;23.242;2023-04-26T04:06:50;93065.75;;;9.11;100.00
61128;BME280;47013;42.664;23.242;2023-04-26T04:09:15;93062.63;;;9.13;100.00
61128;BME280;47013;42.664;23.242;2023-04-26T04:11:41;93054.84;;;9.15;100.00
61128;BME280;47013;42.664;23.242;2023-04-26T04:14:06;93060.41;;;8.88;100.00
61128;BME280;47013;42.664;23.242;2023-04-26T04:16:31;93057.97;;;8.94;100.00
61128;BME280;47013;42.664;23.242;2023-04-26T04:18:56;93066.63;;;9.05;100.00
61128;BME280;47013;42.664;23.242;2023-04-26T04:21:22;93070.75;;;9.13;100.00
61128;BME280;47013;42.664;23.242;2023-04-26T04:23:47;93063.56;;;9.23;100.00
61128;BME280;47013;42.664;23.242;2023-04-26T04:26:14;93062.69;;;9.29;100.00
61128;BME280;47013;42.664;23.242;2023-04-26T04:28:39;93069.88;;;9.36;100.00
61128;BME280;47013;42.664;23.242;2023-04-26T04:31:09;93078.69;;;9.40;99.11
61128;BME280;47013;42.664;23.242;2023-04-26T04:33:34;93066.16;;;9.30;98.60
61128;BME280;47013;42.664;23.242;2023-04-26T04:35:59;93085.34;;;9.35;99.30
61128;BME280;47013;42.664;23.242;2023-04-26T04:38:24;93081.31;;;9.43;99.98
61128;BME280;47013;42.664;23.242;2023-04-26T04:40:50;93079.72;;;9.46;99.43
61128;BME280;47013;42.664;23.242;2023-04-26T04:43:15;93079.72;;;9.46;99.65
61128;BME280;47013;42.664;23.242;2023-04-26T04:45:41;93081.63;;;9.29;100.00
61128;BME280;47013;42.664;23.242;2023-04-26T04:48:07;93078.06;;;9.32;99.79
61128;BME280;47013;42.664;23.242;2023-04-26T04:50:33;93084.09;;;9.40;98.56
61128;BME280;47013;42.664;23.242;2023-04-26T04:52:58;93089.34;;;9.47;98.78
61128;BME280;47013;42.664;23.242;2023-04-26T04:55:23;93086.50;;;9.54;97.84
61128;BME280;47013;42.664;23.242;2023-04-26T04:57:49;93082.44;;;9.62;97.10
61128;BME280;47013;42.664;23.242;2023-04-26T05:00:17;93075.72;;;9.70;96.39
61128;BME280;47013;42.664;23.242;2023-04-26T05:02:49;93084.44;;;9.78;95.01
61128;BME280;47013;42.664;23.242;2023-04-26T05:05:15;93075.41;;;9.85;95.61
61128;BME280;47013;42.664;23.242;2023-04-26T05:07:40;93083.03;;;9.90;96.22
61128;BME280;47013;42.664;23.242;2023-04-26T05:10:06;93081.00;;;9.94;97.32
61128;BME280;47013;42.664;23.242;2023-04-26T05:12:31;93085.41;;;10.04;96.93
61128;BME280;47013;42.664;23.242;2023-04-26T05:14:57;93077.88;;;10.12;97.22
61128;BME280;47013;42.664;23.242;2023-04-26T05:17:22;93084.25;;;10.21;96.58
61128;BME280;47013;42.664;23.242;2023-04-26T05:19:47;93083.31;;;10.28;96.40
61128;BME280;47013;42.664;23.242;2023-04-26T05:22:13;93078.41;;;10.39;95.81
61128;BME280;47013;42.664;23.242;2023-04-26T05:24:45;93078.91;;;10.50;96.42
61128;BME280;47013;42.664;23.242;2023-04-26T05:27:11;93078.66;;;10.61;94.87
61128;BME280;47013;42.664;23.242;2023-04-26T05:29:36;93081.09;;;10.72;94.05
61128;BME280;47013;42.664;23.242;2023-04-26T05:32:02;93079.63;;;10.83;92.33
61128;BME280;47013;42.664;23.242;2023-04-26T05:34:27;93086.66;;;10.81;93.73
61128;BME280;47013;42.664;23.242;2023-04-26T05:36:53;93087.00;;;10.83;91.48
61128;BME280;47013;42.664;23.242;2023-04-26T05:39:18;93100.38;;;10.90;82.94
61128;BME280;47013;42.664;23.242;2023-04-26T05:41:44;93107.56;;;10.97;77.61
61128;BME280;47013;42.664;23.242;2023-04-26T05:44:10;93100.84;;;11.01;78.28
61128;BME280;47013;42.664;23.242;2023-04-26T05:46:35;93110.06;;;11.04;76.96
61128;BME280;47013;42.664;23.242;2023-04-26T05:49:00;93104.56;;;11.07;77.88
61128;BME280;47013;42.664;23.242;2023-04-26T05:51:25;93105.56;;;11.13;78.33
61128;BME280;47013;42.664;23.242;2023-04-26T05:53:51;93110.56;;;11.15;76.22
61128;BME280;47013;42.664;23.242;2023-04-26T05:56:17;93112.34;;;11.21;77.72
61128;BME280;47013;42.664;23.242;2023-04-26T05:58:42;93113.94;;;11.19;76.16
61128;BME280;47013;42.664;23.242;2023-04-26T06:01:07;93109.25;;;11.19;76.38
61128;BME280;47013;42.664;23.242;2023-04-26T06:03:33;93110.06;;;11.20;74.67
61128;BME280;47013;42.664;23.242;2023-04-26T06:05:58;93119.00;;;11.33;74.72
61128;BME280;47013;42.664;23.242;2023-04-26T06:08:23;93115.50;;;11.33;75.56
61128;BME280;47013;42.664;23.242;2023-04-26T06:10:48;93116.31;;;11.46;76.75
61128;BME280;47013;42.664;23.242;2023-04-26T06:13:14;93119.38;;;11.61;76.57
61128;BME280;47013;42.664;23.242;2023-04-26T06:15:39;93124.31;;;11.78;76.58
61128;BME280;47013;42.664;23.242;2023-04-26T06:18:07;93127.25;;;11.84;75.01
61128;BME280;47013;42.664;23.242;2023-04-26T06:20:32;93123.91;;;11.80;73.67
61128;BME280;47013;42.664;23.242;2023-04-26T06:22:58;93129.97;;;11.84;74.86
61128;BME280;47013;42.664;23.242;2023-04-26T06:25:23;93130.72;;;11.85;72.23
61128;BME280;47013;42.664;23.242;2023-04-26T06:27:48;93120.44;;;12.18;100.00
61128;BME280;47013;42.664;23.242;2023-04-26T06:30:13;93137.84;;;12.20;76.83
61128;BME280;47013;42.664;23.242;2023-04-26T06:32:40;93139.34;;;12.21;75.71
61128;BME280;47013;42.664;23.242;2023-04-26T06:35:05;93134.59;;;12.13;71.02
61128;BME280;47013;42.664;23.242;2023-04-26T06:37:31;93139.34;;;12.08;71.60
61128;BME280;47013;42.664;23.242;2023-04-26T06:39:56;93135.09;;;11.95;73.00
61128;BME280;47013;42.664;23.242;2023-04-26T06:42:21;93136.72;;;11.79;72.38
61128;BME280;47013;42.664;23.242;2023-04-26T06:44:46;93131.22;;;11.67;73.16
61128;BME280;47013;42.664;23.242;2023-04-26T06:47:12;93128.31;;;11.74;73.55
61128;BME280;47013;42.664;23.242;2023-04-26T06:49:38;93134.41;;;11.78;73.24
61128;BME280;47013;42.664;23.242;2023-04-26T06:52:03;93141.19;;;11.86;69.15
61128;BME280;47013;42.664;23.242;2023-04-26T06:54:31;93140.84;;;11.97;69.74
61128;BME280;47013;42.664;23.242;2023-04-26T06:56:56;93132.41;;;12.07;71.02
61128;BME280;47013;42.664;23.242;2023-04-26T06:59:21;93137.50;;;12.18;70.04
61128;BME280;47013;42.664;23.242;2023-04-26T07:01:46;93149.91;;;12.06;67.94
61128;BME280;47013;42.664;23.242;2023-04-26T07:04:12;93151.41;;;12.07;67.90
61128;BME280;47013;42.664;23.242;2023-04-26T07:06:38;93155.97;;;12.10;68.46
61128;BME280;47013;42.664;23.242;2023-04-26T07:09:03;93151.19;;;12.02;67.24
61128;BME280;47013;42.664;23.242;2023-04-26T07:11:29;93149.13;;;12.06;67.26
61128;BME280;47013;42.664;23.242;2023-04-26T07:13:55;93147.81;;;12.10;67.79
61128;BME280;47013;42.664;23.242;2023-04-26T07:16:20;93150.78;;;12.03;68.16
61128;BME280;47013;42.664;23.242;2023-04-26T07:18:46;93147.94;;;12.07;66.32
61128;BME280;47013;42.664;23.242;2023-04-26T07:21:14;93144.13;;;12.04;65.24
61128;BME280;47013;42.664;23.242;2023-04-26T07:23:39;93153.91;;;11.89;59.61
61128;BME280;47013;42.664;23.242;2023-04-26T07:26:05;93147.47;;;11.83;61.27
61128;BME280;47013;42.664;23.242;2023-04-26T07:28:30;93149.69;;;11.59;60.42
61128;BME280;47013;42.664;23.242;2023-04-26T07:30:57;93143.03;;;11.47;62.72
61128;BME280;47013;42.664;23.242;2023-04-26T07:33:22;93153.13;;;11.47;63.39
61128;BME280;47013;42.664;23.242;2023-04-26T07:35:54;93161.63;;;11.33;62.29
61128;BME280;47013;42.664;23.242;2023-04-26T07:38:20;93161.59;;;11.20;64.26
61128;BME280;47013;42.664;23.242;2023-04-26T07:40:46;93169.75;;;11.20;63.19
61128;BME280;47013;42.664;23.242;2023-04-26T07:43:11;93168.13;;;11.22;63.64
61128;BME280;47013;42.664;23.242;2023-04-26T07:45:37;93171.25;;;11.21;62.77
61128;BME280;47013;42.664;23.242;2023-04-26T07:48:02;93163.59;;;11.32;63.62
61128;BME280;47013;42.664;23.242;2023-04-26T07:50:27;93173.41;;;11.42;64.58
61128;BME280;47013;42.664;23.242;2023-04-26T07:52:53;93174.78;;;11.63;64.55
61128;BME280;47013;42.664;23.242;2023-04-26T07:55:18;93171.34;;;11.75;63.38
61128;BME280;47013;42.664;23.242;2023-04-26T07:57:43;93168.69;;;11.88;64.71
61128;BME280;47013;42.664;23.242;2023-04-26T08:00:09;93175.09;;;11.94;63.78
61128;BME280;47013;42.664;23.242;2023-04-26T08:02:35;93180.41;;;11.98;63.01
61128;BME280;47013;42.664;23.242;2023-04-26T08:05:00;93161.63;;;11.91;62.08
61128;BME280;47013;42.664;23.242;2023-04-26T08:07:25;93174.63;;;11.83;62.31
61128;BME280;47013;42.664;23.242;2023-04-26T08:09:50;93172.09;;;11.76;61.61
61128;BME280;47013;42.664;23.242;2023-04-26T08:12:16;93181.00;;;11.76;62.20
61128;BME280;47013;42.664;23.242;2023-04-26T08:14:41;93170.81;;;11.80;64.43
61128;BME280;47013;42.664;23.242;2023-04-26T08:17:06;93176.16;;;11.97;63.65
61128;BME280;47013;42.664;23.242;2023-04-26T08:19:33;93175.88;;;12.07;60.86
61128;BME280;47013;42.664;23.242;2023-04-26T08:21:58;93174.38;;;12.19;61.22
61128;BME280;47013;42.664;23.242;2023-04-26T08:24:24;93179.69;;;12.23;60.28
61128;BME280;47013;42.664;23.242;2023-04-26T08:26:49;93177.63;;;12.14;60.50
61128;BME280;47013;42.664;23.242;2023-04-26T08:29:14;93183.50;;;12.13;60.65
61128;BME280;47013;42.664;23.242;2023-04-26T08:31:40;93183.25;;;12.07;61.40
61128;BME280;47013;42.664;23.242;2023-04-26T08:34:06;93181.97;;;12.12;60.35
61128;BME280;47013;42.664;23.242;2023-04-26T08:36:35;93180.34;;;12.14;59.11
61128;BME280;47013;42.664;23.242;2023-04-26T08:39:00;93177.31;;;12.12;60.34
61128;BME280;47013;42.664;23.242;2023-04-26T08:41:25;93171.22;;;12.21;58.56
61128;BME280;47013;42.664;23.242;2023-04-26T08:43:51;93167.09;;;12.29;58.22
61128;BME280;47013;42.664;23.242;2023-04-26T08:46:18;93176.97;;;12.35;60.59
61128;BME280;47013;42.664;23.242;2023-04-26T08:48:43;93174.59;;;12.37;58.65
61128;BME280;47013;42.664;23.242;2023-04-26T08:51:10;93174.69;;;12.47;60.14
61128;BME280;47013;42.664;23.242;2023-04-26T08:53:36;93168.28;;;12.66;60.16
61128;BME280;47013;42.664;23.242;2023-04-26T08:56:03;93172.63;;;12.76;59.23
61128;BME280;47013;42.664;23.242;2023-04-26T08:58:28;93170.66;;;12.89;60.72
61128;BME280;47013;42.664;23.242;2023-04-26T09:00:54;93175.22;;;12.92;57.95
61128;BME280;47013;42.664;23.242;2023-04-26T09:03:21;93168.22;;;13.04;58.65
61128;BME280;47013;42.664;23.242;2023-04-26T09:05:47;93173.22;;;13.06;57.38
61128;BME280;47013;42.664;23.242;2023-04-26T09:08:16;93172.97;;;13.13;58.32
61128;BME280;47013;42.664;23.242;2023-04-26T09:10:42;93177.00;;;13.08;58.11
61128;BME280;47013;42.664;23.242;2023-04-26T09:13:08;93180.59;;;13.18;58.12
61128;BME280;47013;42.664;23.242;2023-04-26T09:15:33;93180.03;;;13.23;58.28
61128;BME280;47013;42.664;23.242;2023-04-26T09:20:43;93193.03;;;13.06;58.10
61128;BME280;47013;42.664;23.242;2023-04-26T09:23:10;93189.09;;;13.20;56.87
61128;BME280;47013;42.664;23.242;2023-04-26T09:25:54;93185.13;;;13.34;55.91
61128;BME280;47013;42.664;23.242;2023-04-26T09:28:20;93196.47;;;13.32;56.19
61128;BME280;47013;42.664;23.242;2023-04-26T09:30:46;93194.06;;;13.34;56.67
61128;BME280;47013;42.664;23.242;2023-04-26T09:33:11;93189.56;;;13.40;59.39
61128;BME280;47013;42.664;23.242;2023-04-26T09:38:08;93183.84;;;13.60;54.67
61128;BME280;47013;42.664;23.242;2023-04-26T09:40:36;93190.13;;;13.70;54.64
61128;BME280;47013;42.664;23.242;2023-04-26T09:45:42;93178.13;;;13.89;54.01
61128;BME280;47013;42.664;23.242;2023-04-26T09:48:14;93165.63;;;14.01;56.10
61128;BME280;47013;42.664;23.242;2023-04-26T09:50:41;93170.47;;;14.28;52.81
61128;BME280;47013;42.664;23.242;2023-04-26T09:53:07;93180.94;;;14.29;53.49
61128;BME280;47013;42.664;23.242;2023-04-26T09:55:35;93171.97;;;14.20;52.71
61128;BME280;47013;42.664;23.242;2023-04-26T09:58:11;93171.88;;;14.32;51.61
61128;BME280;47013;42.664;23.242;2023-04-26T10:00:37;93167.22;;;14.42;52.11
61128;BME280;47013;42.664;23.242;2023-04-26T10:03:02;93167.78;;;14.59;50.63
61128;BME280;47013;42.664;23.242;2023-04-26T10:05:29;93162.88;;;14.54;49.65
61128;BME280;47013;42.664;23.242;2023-04-26T10:07:56;93162.31;;;14.59;50.11
61128;BME280;47013;42.664;23.242;2023-04-26T10:10:22;93158.94;;;14.55;49.42
61128;BME280;47013;42.664;23.242;2023-04-26T10:12:47;93167.13;;;14.45;48.24
61128;BME280;47013;42.664;23.242;2023-04-26T10:15:12;93166.72;;;14.34;48.99
61128;BME280;47013;42.664;23.242;2023-04-26T10:17:38;93158.25;;;14.32;49.26
61128;BME280;47013;42.664;23.242;2023-04-26T10:20:04;93160.66;;;14.61;50.49
61128;BME280;47013;42.664;23.242;2023-04-26T10:22:38;93151.59;;;14.83;47.73
61128;BME280;47013;42.664;23.242;2023-04-26T10:25:05;93164.94;;;14.40;47.72
61128;BME280;47013;42.664;23.242;2023-04-26T10:30:08;93160.72;;;14.17;47.73
61128;BME280;47013;42.664;23.242;2023-04-26T10:33:09;93163.97;;;14.25;47.49
61128;BME280;47013;42.664;23.242;2023-04-26T10:35:18;93162.91;;;14.32;47.38
61128;BME280;47013;42.664;23.242;2023-04-26T10:42:50;93163.19;;;14.47;46.77
61128;BME280;47013;42.664;23.242;2023-04-26T10:45:25;93152.88;;;14.51;45.84
61128;BME280;47013;42.664;23.242;2023-04-26T10:48:12;93143.75;;;14.44;44.96
61128;BME280;47013;42.664;23.242;2023-04-26T10:51:06;93160.16;;;14.23;45.56
61128;BME280;47013;42.664;23.242;2023-04-26T10:53:22;93155.56;;;14.10;45.43
61128;BME280;47013;42.664;23.242;2023-04-26T10:55:47;93154.50;;;14.17;45.06
61128;BME280;47013;42.664;23.242;2023-04-26T11:01:12;93150.16;;;14.20;45.49
61128;BME280;47013;42.664;23.242;2023-04-26T11:03:42;93152.91;;;14.29;44.90
61128;BME280;47013;42.664;23.242;2023-04-26T11:06:09;93147.28;;;14.23;45.25
61128;BME280;47013;42.664;23.242;2023-04-26T11:08:38;93141.41;;;14.03;46.51
61128;BME280;47013;42.664;23.242;2023-04-26T11:13:35;93155.88;;;13.91;47.28
61128;BME280;47013;42.664;23.242;2023-04-26T11:16:02;93153.75;;;13.85;46.65
61128;BME280;47013;42.664;23.242;2023-04-26T11:18:28;93152.03;;;13.79;45.42
61128;BME280;47013;42.664;23.242;2023-04-26T11:20:53;93149.31;;;13.79;46.04
61128;BME280;47013;42.664;23.242;2023-04-26T11:23:19;93151.19;;;13.91;45.99
61128;BME280;47013;42.664;23.242;2023-04-26T11:25:44;93153.22;;;14.00;46.05
61128;BME280;47013;42.664;23.242;2023-04-26T11:28:10;93149.19;;;14.13;43.87
61128;BME280;47013;42.664;23.242;2023-04-26T11:30:35;93151.69;;;14.30;44.48
61128;BME280;47013;42.664;23.242;2023-04-26T11:33:01;93145.38;;;14.33;46.22
61128;BME280;47013;42.664;23.242;2023-04-26T11:35:29;93157.28;;;14.57;44.61
61128;BME280;47013;42.664;23.242;2023-04-26T11:37:57;93161.41;;;14.62;43.91
61128;BME280;47013;42.664;23.242;2023-04-26T11:40:22;93159.03;;;14.42;46.01
61128;BME280;47013;42.664;23.242;2023-04-26T11:42:51;93151.09;;;14.26;46.15
61128;BME280;47013;42.664;23.242;2023-04-26T11:45:16;93151.69;;;13.99;45.69
61128;BME280;47013;42.664;23.242;2023-04-26T11:47:42;93151.94;;;13.92;45.79
61128;BME280;47013;42.664;23.242;2023-04-26T11:50:07;93155.44;;;13.92;47.83
61128;BME280;47013;42.664;23.242;2023-04-26T11:52:34;93157.41;;;13.92;46.70
61128;BME280;47013;42.664;23.242;2023-04-26T11:55:02;93155.13;;;13.90;46.20
61128;BME280;47013;42.664;23.242;2023-04-26T11:57:29;93154.44;;;13.99;45.20
61128;BME280;47013;42.664;23.242;2023-04-26T12:00:05;93159.56;;;14.28;47.83
61128;BME280;47013;42.664;23.242;2023-04-26T12:02:34;93154.75;;;14.63;44.88
61128;BME280;47013;42.664;23.242;2023-04-26T12:04:59;93142.97;;;14.84;44.07
61128;BME280;47013;42.664;23.242;2023-04-26T12:07:24;93146.44;;;14.75;42.82
61128;BME280;47013;42.664;23.242;2023-04-26T12:09:50;93149.19;;;14.75;43.15
61128;BME280;47013;42.664;23.242;2023-04-26T12:12:15;93147.88;;;14.49;43.17
61128;BME280;47013;42.664;23.242;2023-04-26T12:14:41;93141.59;;;14.39;44.03
61128;BME280;47013;42.664;23.242;2023-04-26T12:17:08;93144.91;;;14.34;45.01
61128;BME280;47013;42.664;23.242;2023-04-26T12:19:38;93155.22;;;14.39;45.61
61128;BME280;47013;42.664;23.242;2023-04-26T12:22:04;93134.94;;;14.40;43.07
61128;BME280;47013;42.664;23.242;2023-04-26T12:24:30;93146.25;;;14.30;42.76
61128;BME280;47013;42.664;23.242;2023-04-26T12:27:01;93132.97;;;14.41;42.92
61128;BME280;47013;42.664;23.242;2023-04-26T12:29:28;93141.06;;;14.54;43.56
61128;BME280;47013;42.664;23.242;2023-04-26T12:31:54;93142.22;;;14.43;42.87
61128;BME280;47013;42.664;23.242;2023-04-26T12:34:20;93146.44;;;14.35;44.25
61128;BME280;47013;42.664;23.242;2023-04-26T12:36:45;93137.44;;;14.26;43.35
61128;BME280;47013;42.664;23.242;2023-04-26T12:39:10;93148.84;;;14.33;45.40
61128;BME280;47013;42.664;23.242;2023-04-26T12:41:37;93134.78;;;14.35;45.16
61128;BME280;47013;42.664;23.242;2023-04-26T12:44:03;93136.34;;;14.45;43.93
61128;BME280;47013;42.664;23.242;2023-04-26T12:46:28;93132.84;;;14.44;43.56
61128;BME280;47013;42.664;23.242;2023-04-26T12:48:54;93142.28;;;14.53;44.38
61128;BME280;47013;42.664;23.242;2023-04-26T12:51:19;93132.31;;;14.59;45.46
61128;BME280;47013;42.664;23.242;2023-04-26T12:53:44;93126.53;;;14.57;43.75
61128;BME280;47013;42.664;23.242;2023-04-26T12:56:09;93133.19;;;14.47;43.97
61128;BME280;47013;42.664;23.242;2023-04-26T12:58:35;93134.78;;;14.35;43.87
61128;BME280;47013;42.664;23.242;2023-04-26T13:01:00;93124.94;;;14.37;44.46
61128;BME280;47013;42.664;23.242;2023-04-26T13:03:25;93147.75;;;14.31;45.77
61128;BME280;47013;42.664;23.242;2023-04-26T13:05:51;93140.78;;;14.21;46.14
61128;BME280;47013;42.664;23.242;2023-04-26T13:08:16;93149.34;;;14.10;46.59